GW0035 Weather Reports


Display with metric or nautical units.
time (UTC)temp
F
wind
direction
speed
MPH
gust
MPH
rain 1hr
in
rain 24hr
in
rain mn
in
humidity
%
barometer
mb
20230129205947 75 135 1.0 1.0 0.00 0.00 0.00 93 997.3
20230129185641 75 180 1.0 1.0 0.00 0.00 0.00 92 998.6
20230129150907 78 68 2.0 2.0 0.00 0.00 0.00 70 998.3
20230129132042 84 113 3.0 3.0 0.00 0.00 0.00 55 995.6
20230129111722 93 90 3.0 3.0 0.00 0.00 0.00 43 993.6
20230129091427 95 90 4.0 4.0 0.00 0.00 0.00 42 993.9
20230129072617 92 158 4.0 4.0 0.00 0.00 0.00 46 996.3
20230129054049 88 45 4.0 4.0 0.00 0.00 0.00 52 998.0
20230129053007 87 23 4.0 4.0 0.00 0.00 0.00 53 998.3
20230129052449 87 293 4.0 4.0 0.00 0.00 0.00 54 998.6
20230129050449 87 68 3.0 3.0 0.00 0.00 0.00 55 998.6
20230129045550 86 45 4.0 4.0 0.00 0.00 0.00 56 998.6
20230129044525 85 90 3.0 3.0 0.00 0.00 0.00 55 998.6
20230129042952 84 45 3.0 3.0 0.00 0.00 0.00 57 999.0
20230129041951 84 90 3.0 3.0 0.00 0.00 0.00 58 999.0
20230129041449 83 113 3.0 3.0 0.00 0.00 0.00 59 999.0
20230129035953 82 113 3.0 3.0 0.00 0.00 0.00 63 999.0
20230129034449 81 158 3.0 3.0 0.00 0.00 0.00 67 999.0
20230129033950 80 248 3.0 3.0 0.00 0.00 0.00 67 999.0
20230129032951 80 45 3.0 3.0 0.00 0.00 0.00 69 999.0
20230129032449 79 135 3.0 3.0 0.00 0.00 0.00 70 999.0
20230129031949 78 113 3.0 3.0 0.00 0.00 0.00 71 998.6
20230129030949 76 113 3.0 3.0 0.00 0.00 0.00 74 998.3
20230129025449 76 90 2.0 2.0 0.00 0.00 0.00 74 998.3
20230129024949 77 135 2.0 2.0 0.00 0.00 0.00 73 998.3
20230129024449 75 158 2.0 2.0 0.00 0.00 0.00 75 998.3
20230129023450 73 113 2.0 2.0 0.00 0.00 0.00 78 998.3
20230129022450 72 90 2.0 2.0 0.00 0.00 0.00 79 998.3
20230129020951 71 45 2.0 2.0 0.00 0.00 0.00 80 998.0
20230129020449 71 68 3.0 3.0 0.00 0.00 0.00 80 998.0
20230129015949 71 338 3.0 3.0 0.00 0.00 0.00 80 998.0
20230129013951 71 113 3.0 3.0 0.00 0.00 0.00 80 997.6
20230129012948 71 90 3.0 3.0 0.00 0.00 0.00 79 997.6
20230129005950 71 90 2.0 2.0 0.00 0.00 0.00 79 997.3
20230129004449 71 90 2.0 2.0 0.00 0.00 0.00 79 997.0
20230129003949 71 68 2.0 2.0 0.00 0.00 0.00 79 997.0
20230129002949 70 45 2.0 2.0 0.00 0.00 0.00 80 996.6
20230129002449 70 68 2.0 2.0 0.00 0.00 0.00 80 996.6
20230129001449 70 113 1.0 1.0 0.00 0.00 0.00 80 996.6
20230128235449 70 90 2.0 2.0 0.00 0.00 0.00 79 996.3
20230128234949 70 90 2.0 2.0 0.00 0.00 0.00 79 996.3
20230128234449 70 90 2.0 2.0 0.00 0.00 0.00 79 996.3
20230128233949 71 113 2.0 2.0 0.00 0.00 0.00 78 995.9
20230128232449 71 113 2.0 2.0 0.00 0.00 0.00 78 995.9
20230128231949 71 135 2.0 2.0 0.00 0.00 0.00 78 995.9
20230128230449 70 68 2.0 2.0 0.00 0.00 0.00 78 995.9